sensor_id;sensor_type;location;lat;lon;timestamp;temperature;humidity
5174;DHT22;2606;50.934;6.934;2022-11-12T00:00:42;9.40;99.90
5174;DHT22;2606;50.934;6.934;2022-11-12T00:03:08;9.40;99.90
5174;DHT22;2606;50.934;6.934;2022-11-12T00:05:33;9.40;99.90
5174;DHT22;2606;50.934;6.934;2022-11-12T00:07:59;9.40;99.90
5174;DHT22;2606;50.934;6.934;2022-11-12T00:10:25;9.40;99.90
5174;DHT22;2606;50.934;6.934;2022-11-12T00:12:51;9.40;99.90
5174;DHT22;2606;50.934;6.934;2022-11-12T00:15:16;9.40;99.90
5174;DHT22;2606;50.934;6.934;2022-11-12T00:17:42;9.40;99.90
5174;DHT22;2606;50.934;6.934;2022-11-12T00:20:08;9.30;99.90
5174;DHT22;2606;50.934;6.934;2022-11-12T00:22:33;9.30;99.90
5174;DHT22;2606;50.934;6.934;2022-11-12T00:24:59;9.30;99.90
5174;DHT22;2606;50.934;6.934;2022-11-12T00:27:25;9.30;99.90
5174;DHT22;2606;50.934;6.934;2022-11-12T00:29:50;9.30;99.90
5174;DHT22;2606;50.934;6.934;2022-11-12T00:32:16;9.30;99.90
5174;DHT22;2606;50.934;6.934;2022-11-12T00:34:41;9.30;99.90
5174;DHT22;2606;50.934;6.934;2022-11-12T00:37:07;9.30;99.90
5174;DHT22;2606;50.934;6.934;2022-11-12T00:39:33;9.20;99.90
5174;DHT22;2606;50.934;6.934;2022-11-12T00:41:59;9.20;99.90
5174;DHT22;2606;50.934;6.934;2022-11-12T00:44:25;9.20;99.90
5174;DHT22;2606;50.934;6.934;2022-11-12T00:46:50;9.20;99.90
5174;DHT22;2606;50.934;6.934;2022-11-12T00:49:16;9.20;99.90
5174;DHT22;2606;50.934;6.934;2022-11-12T00:51:42;9.20;99.90
5174;DHT22;2606;50.934;6.934;2022-11-12T00:54:07;9.10;99.90
5174;DHT22;2606;50.934;6.934;2022-11-12T00:56:33;9.10;99.90
5174;DHT22;2606;50.934;6.934;2022-11-12T00:58:59;9.10;99.90
5174;DHT22;2606;50.934;6.934;2022-11-12T01:01:25;9.10;99.90
5174;DHT22;2606;50.934;6.934;2022-11-12T01:03:51;9.10;99.90
5174;DHT22;2606;50.934;6.934;2022-11-12T01:06:19;9.10;99.90
5174;DHT22;2606;50.934;6.934;2022-11-12T01:08:45;9.00;99.90
5174;DHT22;2606;50.934;6.934;2022-11-12T01:11:18;9.10;99.90
5174;DHT22;2606;50.934;6.934;2022-11-12T01:13:45;9.00;99.90
5174;DHT22;2606;50.934;6.934;2022-11-12T01:16:19;9.00;99.90
5174;DHT22;2606;50.934;6.934;2022-11-12T01:18:46;8.90;99.90
5174;DHT22;2606;50.934;6.934;2022-11-12T01:21:13;8.90;99.90
5174;DHT22;2606;50.934;6.934;2022-11-12T01:23:41;8.90;99.90
5174;DHT22;2606;50.934;6.934;2022-11-12T01:26:10;8.90;99.90
5174;DHT22;2606;50.934;6.934;2022-11-12T01:28:36;8.90;99.90
5174;DHT22;2606;50.934;6.934;2022-11-12T01:31:10;8.90;99.90
5174;DHT22;2606;50.934;6.934;2022-11-12T01:33:37;8.90;99.90
5174;DHT22;2606;50.934;6.934;2022-11-12T01:36:03;8.80;99.90
5174;DHT22;2606;50.934;6.934;2022-11-12T01:38:29;8.80;99.90
5174;DHT22;2606;50.934;6.934;2022-11-12T01:40:57;8.80;99.90
5174;DHT22;2606;50.934;6.934;2022-11-12T01:43:23;8.80;99.90
5174;DHT22;2606;50.934;6.934;2022-11-12T01:45:49;8.80;99.90
5174;DHT22;2606;50.934;6.934;2022-11-12T01:48:26;8.80;99.90
5174;DHT22;2606;50.934;6.934;2022-11-12T01:50:54;8.80;99.90
5174;DHT22;2606;50.934;6.934;2022-11-12T01:53:20;8.70;99.90
5174;DHT22;2606;50.934;6.934;2022-11-12T01:55:47;8.70;99.90
5174;DHT22;2606;50.934;6.934;2022-11-12T01:58:15;8.70;99.90
5174;DHT22;2606;50.934;6.934;2022-11-12T02:00:42;8.70;99.90
5174;DHT22;2606;50.934;6.934;2022-11-12T02:03:15;8.70;99.90
5174;DHT22;2606;50.934;6.934;2022-11-12T02:05:45;8.70;99.90
5174;DHT22;2606;50.934;6.934;2022-11-12T02:08:12;8.70;99.90
5174;DHT22;2606;50.934;6.934;2022-11-12T02:10:38;8.60;99.90
5174;DHT22;2606;50.934;6.934;2022-11-12T02:13:04;8.60;99.90
5174;DHT22;2606;50.934;6.934;2022-11-12T02:15:49;8.60;99.90
5174;DHT22;2606;50.934;6.934;2022-11-12T02:18:14;8.60;99.90
5174;DHT22;2606;50.934;6.934;2022-11-12T02:20:40;8.60;99.90
5174;DHT22;2606;50.934;6.934;2022-11-12T02:23:07;8.60;99.90
5174;DHT22;2606;50.934;6.934;2022-11-12T02:25:33;8.60;99.90
5174;DHT22;2606;50.934;6.934;2022-11-12T02:28:00;8.60;99.90
5174;DHT22;2606;50.934;6.934;2022-11-12T02:30:32;8.60;99.90
5174;DHT22;2606;50.934;6.934;2022-11-12T02:32:58;8.50;99.90
5174;DHT22;2606;50.934;6.934;2022-11-12T02:35:24;8.50;99.90
5174;DHT22;2606;50.934;6.934;2022-11-12T02:37:49;8.50;99.90
5174;DHT22;2606;50.934;6.934;2022-11-12T02:40:15;8.50;99.90
5174;DHT22;2606;50.934;6.934;2022-11-12T02:42:40;8.50;99.90
5174;DHT22;2606;50.934;6.934;2022-11-12T02:45:06;8.50;99.90
5174;DHT22;2606;50.934;6.934;2022-11-12T02:47:32;8.50;99.90
5174;DHT22;2606;50.934;6.934;2022-11-12T02:49:57;8.40;99.90
5174;DHT22;2606;50.934;6.934;2022-11-12T02:52:23;8.50;99.90
5174;DHT22;2606;50.934;6.934;2022-11-12T02:54:48;8.40;99.90
5174;DHT22;2606;50.934;6.934;2022-11-12T02:57:14;8.40;99.90
5174;DHT22;2606;50.934;6.934;2022-11-12T02:59:40;8.40;99.90
5174;DHT22;2606;50.934;6.934;2022-11-12T03:02:05;8.40;99.90
5174;DHT22;2606;50.934;6.934;2022-11-12T03:04:31;8.40;99.90
5174;DHT22;2606;50.934;6.934;2022-11-12T03:06:56;8.40;99.90
5174;DHT22;2606;50.934;6.934;2022-11-12T03:09:22;8.40;99.90
5174;DHT22;2606;50.934;6.934;2022-11-12T03:11:48;8.30;99.90
5174;DHT22;2606;50.934;6.934;2022-11-12T03:14:13;8.30;99.90
5174;DHT22;2606;50.934;6.934;2022-11-12T03:16:39;8.30;99.90
5174;DHT22;2606;50.934;6.934;2022-11-12T03:19:04;8.30;99.90
5174;DHT22;2606;50.934;6.934;2022-11-12T03:21:30;8.30;99.90
5174;DHT22;2606;50.934;6.934;2022-11-12T03:23:55;8.30;99.90
5174;DHT22;2606;50.934;6.934;2022-11-12T03:26:21;8.30;99.90
5174;DHT22;2606;50.934;6.934;2022-11-12T03:28:49;8.30;99.90
5174;DHT22;2606;50.934;6.934;2022-11-12T03:31:15;8.20;99.90
5174;DHT22;2606;50.934;6.934;2022-11-12T03:33:40;8.20;99.90
5174;DHT22;2606;50.934;6.934;2022-11-12T03:36:06;8.20;99.90
5174;DHT22;2606;50.934;6.934;2022-11-12T03:38:32;8.20;99.90
5174;DHT22;2606;50.934;6.934;2022-11-12T03:40:57;8.20;99.90
5174;DHT22;2606;50.934;6.934;2022-11-12T03:43:23;8.20;99.90
5174;DHT22;2606;50.934;6.934;2022-11-12T03:45:48;8.10;99.90
5174;DHT22;2606;50.934;6.934;2022-11-12T03:48:14;8.10;99.90
5174;DHT22;2606;50.934;6.934;2022-11-12T03:50:39;8.10;99.90
5174;DHT22;2606;50.934;6.934;2022-11-12T03:53:05;8.10;99.90
5174;DHT22;2606;50.934;6.934;2022-11-12T03:55:30;8.10;99.90
5174;DHT22;2606;50.934;6.934;2022-11-12T03:57:57;8.10;99.90
5174;DHT22;2606;50.934;6.934;2022-11-12T04:00:24;8.10;99.90
5174;DHT22;2606;50.934;6.934;2022-11-12T04:02:50;8.00;99.90
5174;DHT22;2606;50.934;6.934;2022-11-12T04:05:17;8.00;99.90
5174;DHT22;2606;50.934;6.934;2022-11-12T04:08:04;8.00;99.90
5174;DHT22;2606;50.934;6.934;2022-11-12T04:10:48;8.00;99.90
5174;DHT22;2606;50.934;6.934;2022-11-12T04:13:14;8.00;99.90
5174;DHT22;2606;50.934;6.934;2022-11-12T04:16:00;8.00;99.90
5174;DHT22;2606;50.934;6.934;2022-11-12T04:18:47;7.90;99.90
5174;DHT22;2606;50.934;6.934;2022-11-12T04:21:45;7.90;99.90
5174;DHT22;2606;50.934;6.934;2022-11-12T04:27:16;7.90;99.90
5174;DHT22;2606;50.934;6.934;2022-11-12T04:29:42;7.90;99.90
5174;DHT22;2606;50.934;6.934;2022-11-12T04:32:28;7.90;99.90
5174;DHT22;2606;50.934;6.934;2022-11-12T04:34:54;7.90;99.90
5174;DHT22;2606;50.934;6.934;2022-11-12T04:37:22;7.90;99.90
5174;DHT22;2606;50.934;6.934;2022-11-12T04:39:48;7.80;99.90
5174;DHT22;2606;50.934;6.934;2022-11-12T04:42:14;7.80;99.90
5174;DHT22;2606;50.934;6.934;2022-11-12T04:44:58;7.80;99.90
5174;DHT22;2606;50.934;6.934;2022-11-12T04:49:55;7.80;99.90
5174;DHT22;2606;50.934;6.934;2022-11-12T04:52:21;7.70;99.90
5174;DHT22;2606;50.934;6.934;2022-11-12T04:54:46;7.70;99.90
5174;DHT22;2606;50.934;6.934;2022-11-12T04:57:12;7.70;99.90
5174;DHT22;2606;50.934;6.934;2022-11-12T04:59:37;7.70;99.90
5174;DHT22;2606;50.934;6.934;2022-11-12T05:02:03;7.70;99.90
5174;DHT22;2606;50.934;6.934;2022-11-12T05:04:28;7.70;99.90
5174;DHT22;2606;50.934;6.934;2022-11-12T05:06:55;7.60;99.90
5174;DHT22;2606;50.934;6.934;2022-11-12T05:09:23;7.60;99.90
5174;DHT22;2606;50.934;6.934;2022-11-12T05:11:49;7.60;99.90
5174;DHT22;2606;50.934;6.934;2022-11-12T05:14:15;7.60;99.90
5174;DHT22;2606;50.934;6.934;2022-11-12T05:16:41;7.50;99.90
5174;DHT22;2606;50.934;6.934;2022-11-12T05:19:07;7.50;99.90
5174;DHT22;2606;50.934;6.934;2022-11-12T05:21:32;7.50;99.90
5174;DHT22;2606;50.934;6.934;2022-11-12T05:24:19;7.40;99.90
5174;DHT22;2606;50.934;6.934;2022-11-12T05:26:45;7.50;99.90
5174;DHT22;2606;50.934;6.934;2022-11-12T05:29:10;7.40;99.90
5174;DHT22;2606;50.934;6.934;2022-11-12T05:31:36;7.40;99.90
5174;DHT22;2606;50.934;6.934;2022-11-12T05:34:01;7.40;99.90
5174;DHT22;2606;50.934;6.934;2022-11-12T05:36:27;7.40;99.90
5174;DHT22;2606;50.934;6.934;2022-11-12T05:38:53;7.40;99.90
5174;DHT22;2606;50.934;6.934;2022-11-12T05:41:18;7.30;99.90
5174;DHT22;2606;50.934;6.934;2022-11-12T05:43:44;7.30;99.90
5174;DHT22;2606;50.934;6.934;2022-11-12T05:46:09;7.30;99.90
5174;DHT22;2606;50.934;6.934;2022-11-12T05:48:35;7.20;99.90
5174;DHT22;2606;50.934;6.934;2022-11-12T05:51:01;7.20;99.90
5174;DHT22;2606;50.934;6.934;2022-11-12T05:53:26;7.10;99.90
5174;DHT22;2606;50.934;6.934;2022-11-12T05:55:52;7.10;99.90
5174;DHT22;2606;50.934;6.934;2022-11-12T05:58:17;7.10;99.90
5174;DHT22;2606;50.934;6.934;2022-11-12T06:00:43;7.10;99.90
5174;DHT22;2606;50.934;6.934;2022-11-12T06:03:10;7.00;99.90
5174;DHT22;2606;50.934;6.934;2022-11-12T06:05:36;7.00;99.90
5174;DHT22;2606;50.934;6.934;2022-11-12T06:08:03;7.00;99.90
5174;DHT22;2606;50.934;6.934;2022-11-12T06:10:33;7.00;99.90
5174;DHT22;2606;50.934;6.934;2022-11-12T06:12:58;7.00;99.90
5174;DHT22;2606;50.934;6.934;2022-11-12T06:15:24;7.00;99.90
5174;DHT22;2606;50.934;6.934;2022-11-12T06:17:53;7.00;99.90
5174;DHT22;2606;50.934;6.934;2022-11-12T06:20:19;6.90;99.90
5174;DHT22;2606;50.934;6.934;2022-11-12T06:22:45;6.90;99.90
5174;DHT22;2606;50.934;6.934;2022-11-12T06:25:12;6.90;99.90
5174;DHT22;2606;50.934;6.934;2022-11-12T06:27:38;6.90;99.90
5174;DHT22;2606;50.934;6.934;2022-11-12T06:30:04;6.90;99.90
5174;DHT22;2606;50.934;6.934;2022-11-12T06:32:30;6.80;99.90
5174;DHT22;2606;50.934;6.934;2022-11-12T06:34:55;6.80;99.90
5174;DHT22;2606;50.934;6.934;2022-11-12T06:37:21;6.80;99.90
5174;DHT22;2606;50.934;6.934;2022-11-12T06:39:47;6.80;99.90
5174;DHT22;2606;50.934;6.934;2022-11-12T06:42:14;6.80;99.90
5174;DHT22;2606;50.934;6.934;2022-11-12T06:44:39;6.80;99.90
5174;DHT22;2606;50.934;6.934;2022-11-12T06:47:05;6.80;99.90
5174;DHT22;2606;50.934;6.934;2022-11-12T06:49:31;6.70;99.90
5174;DHT22;2606;50.934;6.934;2022-11-12T06:51:56;6.70;99.90
5174;DHT22;2606;50.934;6.934;2022-11-12T06:54:22;6.70;99.90
5174;DHT22;2606;50.934;6.934;2022-11-12T06:56:48;6.70;99.90
5174;DHT22;2606;50.934;6.934;2022-11-12T06:59:13;6.70;99.90
5174;DHT22;2606;50.934;6.934;2022-11-12T07:01:39;6.60;99.90
5174;DHT22;2606;50.934;6.934;2022-11-12T07:04:04;6.70;99.90
5174;DHT22;2606;50.934;6.934;2022-11-12T07:06:30;6.60;99.90
5174;DHT22;2606;50.934;6.934;2022-11-12T07:08:57;6.60;99.90
5174;DHT22;2606;50.934;6.934;2022-11-12T07:11:23;6.60;99.90
5174;DHT22;2606;50.934;6.934;2022-11-12T07:13:48;6.60;99.90
5174;DHT22;2606;50.934;6.934;2022-11-12T07:16:14;6.60;99.90
5174;DHT22;2606;50.934;6.934;2022-11-12T07:18:43;6.60;99.90
5174;DHT22;2606;50.934;6.934;2022-11-12T07:21:11;6.60;99.90
5174;DHT22;2606;50.934;6.934;2022-11-12T07:23:37;6.60;99.90
5174;DHT22;2606;50.934;6.934;2022-11-12T07:28:38;6.60;99.90
5174;DHT22;2606;50.934;6.934;2022-11-12T07:31:09;6.70;99.90
5174;DHT22;2606;50.934;6.934;2022-11-12T07:33:36;6.70;99.90
5174;DHT22;2606;50.934;6.934;2022-11-12T07:36:10;6.70;99.90
5174;DHT22;2606;50.934;6.934;2022-11-12T07:38:37;6.80;99.90
5174;DHT22;2606;50.934;6.934;2022-11-12T07:41:11;6.80;99.90
5174;DHT22;2606;50.934;6.934;2022-11-12T07:43:37;6.80;99.90
5174;DHT22;2606;50.934;6.934;2022-11-12T07:48:31;6.90;99.90
5174;DHT22;2606;50.934;6.934;2022-11-12T07:51:05;6.90;99.90
5174;DHT22;2606;50.934;6.934;2022-11-12T07:53:31;6.90;99.90
5174;DHT22;2606;50.934;6.934;2022-11-12T07:55:58;6.90;99.90
5174;DHT22;2606;50.934;6.934;2022-11-12T07:58:29;7.00;99.90
5174;DHT22;2606;50.934;6.934;2022-11-12T08:00:55;7.00;99.90
5174;DHT22;2606;50.934;6.934;2022-11-12T08:03:27;7.20;99.90
5174;DHT22;2606;50.934;6.934;2022-11-12T08:06:00;7.50;99.90
5174;DHT22;2606;50.934;6.934;2022-11-12T08:08:26;7.80;99.90
5174;DHT22;2606;50.934;6.934;2022-11-12T08:10:55;8.00;99.90
5174;DHT22;2606;50.934;6.934;2022-11-12T08:13:22;8.00;99.90
5174;DHT22;2606;50.934;6.934;2022-11-12T08:15:47;8.20;99.90
5174;DHT22;2606;50.934;6.934;2022-11-12T08:18:13;8.20;99.90
5174;DHT22;2606;50.934;6.934;2022-11-12T08:20:39;8.30;99.90
5174;DHT22;2606;50.934;6.934;2022-11-12T08:23:04;8.40;99.90
5174;DHT22;2606;50.934;6.934;2022-11-12T08:25:30;8.50;99.90
5174;DHT22;2606;50.934;6.934;2022-11-12T08:27:59;8.70;99.90
5174;DHT22;2606;50.934;6.934;2022-11-12T08:30:29;8.90;99.90
5174;DHT22;2606;50.934;6.934;2022-11-12T08:33:04;9.10;99.90
5174;DHT22;2606;50.934;6.934;2022-11-12T08:35:31;9.40;99.90
5174;DHT22;2606;50.934;6.934;2022-11-12T08:37:58;9.80;99.90
5174;DHT22;2606;50.934;6.934;2022-11-12T08:40:24;10.30;99.90
5174;DHT22;2606;50.934;6.934;2022-11-12T08:42:56;10.70;99.90
5174;DHT22;2606;50.934;6.934;2022-11-12T08:45:22;11.10;99.90
5174;DHT22;2606;50.934;6.934;2022-11-12T08:47:48;11.40;99.90
5174;DHT22;2606;50.934;6.934;2022-11-12T08:50:13;11.70;99.90
5174;DHT22;2606;50.934;6.934;2022-11-12T08:52:39;12.00;99.90
5174;DHT22;2606;50.934;6.934;2022-11-12T08:55:05;12.30;99.90
5174;DHT22;2606;50.934;6.934;2022-11-12T08:57:31;12.50;99.90
5174;DHT22;2606;50.934;6.934;2022-11-12T08:59:56;12.80;99.90
5174;DHT22;2606;50.934;6.934;2022-11-12T09:02:22;13.00;99.90
5174;DHT22;2606;50.934;6.934;2022-11-12T09:04:47;13.20;99.90
5174;DHT22;2606;50.934;6.934;2022-11-12T09:07:13;13.40;99.90
5174;DHT22;2606;50.934;6.934;2022-11-12T09:09:38;13.60;99.90
5174;DHT22;2606;50.934;6.934;2022-11-12T09:12:04;13.50;99.30
5174;DHT22;2606;50.934;6.934;2022-11-12T09:14:30;13.50;98.60
5174;DHT22;2606;50.934;6.934;2022-11-12T09:16:55;13.40;99.00
5174;DHT22;2606;50.934;6.934;2022-11-12T09:19:21;13.20;99.10
5174;DHT22;2606;50.934;6.934;2022-11-12T09:21:46;13.30;99.50
5174;DHT22;2606;50.934;6.934;2022-11-12T09:24:12;13.50;99.10
5174;DHT22;2606;50.934;6.934;2022-11-12T09:26:37;13.70;98.10
5174;DHT22;2606;50.934;6.934;2022-11-12T09:29:03;13.90;98.20
5174;DHT22;2606;50.934;6.934;2022-11-12T09:31:28;14.00;98.60
5174;DHT22;2606;50.934;6.934;2022-11-12T09:33:54;14.10;98.10
5174;DHT22;2606;50.934;6.934;2022-11-12T09:36:19;14.20;98.40
5174;DHT22;2606;50.934;6.934;2022-11-12T09:38:45;14.30;97.80
5174;DHT22;2606;50.934;6.934;2022-11-12T09:41:23;14.40;97.40
5174;DHT22;2606;50.934;6.934;2022-11-12T09:43:55;14.50;97.80
5174;DHT22;2606;50.934;6.934;2022-11-12T09:46:30;14.70;98.00
5174;DHT22;2606;50.934;6.934;2022-11-12T09:49:05;14.80;96.90
5174;DHT22;2606;50.934;6.934;2022-11-12T09:51:38;14.90;96.90
5174;DHT22;2606;50.934;6.934;2022-11-12T09:54:11;15.00;96.90
5174;DHT22;2606;50.934;6.934;2022-11-12T09:56:40;15.20;96.20
5174;DHT22;2606;50.934;6.934;2022-11-12T09:59:11;15.20;96.20
5174;DHT22;2606;50.934;6.934;2022-11-12T10:07:15;15.60;96.80
5174;DHT22;2606;50.934;6.934;2022-11-12T10:21:46;15.40;95.40
5174;DHT22;2606;50.934;6.934;2022-11-12T10:24:15;15.10;95.90
5174;DHT22;2606;50.934;6.934;2022-11-12T10:26:40;14.80;96.60
5174;DHT22;2606;50.934;6.934;2022-11-12T10:31:49;14.40;97.60
5174;DHT22;2606;50.934;6.934;2022-11-12T10:34:19;14.20;98.00
5174;DHT22;2606;50.934;6.934;2022-11-12T10:37:00;14.00;98.40
5174;DHT22;2606;50.934;6.934;2022-11-12T10:39:38;13.80;99.00
5174;DHT22;2606;50.934;6.934;2022-11-12T10:42:10;13.70;99.40
5174;DHT22;2606;50.934;6.934;2022-11-12T10:44:40;13.60;99.70
5174;DHT22;2606;50.934;6.934;2022-11-12T10:47:23;13.50;99.80
5174;DHT22;2606;50.934;6.934;2022-11-12T10:52:34;13.30;99.90
5174;DHT22;2606;50.934;6.934;2022-11-12T10:57:31;13.30;99.90
5174;DHT22;2606;50.934;6.934;2022-11-12T11:02:54;13.20;99.90
5174;DHT22;2606;50.934;6.934;2022-11-12T11:07:55;13.20;99.90
5174;DHT22;2606;50.934;6.934;2022-11-12T11:10:33;13.20;99.90
5174;DHT22;2606;50.934;6.934;2022-11-12T11:13:19;13.30;99.90
5174;DHT22;2606;50.934;6.934;2022-11-12T11:16:05;13.30;99.90
5174;DHT22;2606;50.934;6.934;2022-11-12T11:18:33;13.30;99.90
5174;DHT22;2606;50.934;6.934;2022-11-12T11:26:21;13.40;99.90
5174;DHT22;2606;50.934;6.934;2022-11-12T11:34:27;13.40;99.90
5174;DHT22;2606;50.934;6.934;2022-11-12T11:37:12;13.40;99.90
5174;DHT22;2606;50.934;6.934;2022-11-12T11:48:26;13.40;99.90
5174;DHT22;2606;50.934;6.934;2022-11-12T11:51:04;13.50;99.90
5174;DHT22;2606;50.934;6.934;2022-11-12T11:56:30;13.50;99.90
5174;DHT22;2606;50.934;6.934;2022-11-12T11:59:04;13.50;99.90
5174;DHT22;2606;50.934;6.934;2022-11-12T12:07:35;13.40;99.90
5174;DHT22;2606;50.934;6.934;2022-11-12T12:10:24;13.40;99.90
5174;DHT22;2606;50.934;6.934;2022-11-12T12:21:13;13.50;99.90
5174;DHT22;2606;50.934;6.934;2022-11-12T12:23:59;13.60;99.90
5174;DHT22;2606;50.934;6.934;2022-11-12T12:26:34;13.60;99.90
5174;DHT22;2606;50.934;6.934;2022-11-12T12:29:23;13.70;99.90
5174;DHT22;2606;50.934;6.934;2022-11-12T12:34:37;13.70;99.90
5174;DHT22;2606;50.934;6.934;2022-11-12T12:40:34;13.80;99.90
5174;DHT22;2606;50.934;6.934;2022-11-12T12:43:21;13.80;99.90
5174;DHT22;2606;50.934;6.934;2022-11-12T12:45:48;13.80;99.90
5174;DHT22;2606;50.934;6.934;2022-11-12T12:50:49;13.80;99.90
5174;DHT22;2606;50.934;6.934;2022-11-12T12:55:58;13.90;99.90
5174;DHT22;2606;50.934;6.934;2022-11-12T13:03:49;13.90;99.90
5174;DHT22;2606;50.934;6.934;2022-11-12T13:06:21;14.00;99.90
5174;DHT22;2606;50.934;6.934;2022-11-12T13:48:45;14.10;99.90
5174;DHT22;2606;50.934;6.934;2022-11-12T13:51:59;14.10;99.90
5174;DHT22;2606;50.934;6.934;2022-11-12T13:56:51;14.10;99.90
5174;DHT22;2606;50.934;6.934;2022-11-12T13:59:25;14.20;99.90
5174;DHT22;2606;50.934;6.934;2022-11-12T14:01:54;14.20;99.90
5174;DHT22;2606;50.934;6.934;2022-11-12T14:04:22;14.20;99.90
5174;DHT22;2606;50.934;6.934;2022-11-12T14:07:05;14.20;99.90
5174;DHT22;2606;50.934;6.934;2022-11-12T14:09:53;14.30;99.90
5174;DHT22;2606;50.934;6.934;2022-11-12T14:21:12;14.30;99.90
5174;DHT22;2606;50.934;6.934;2022-11-12T14:23:43;14.30;99.90
5174;DHT22;2606;50.934;6.934;2022-11-12T14:26:11;14.40;99.90
5174;DHT22;2606;50.934;6.934;2022-11-12T14:28:37;14.40;99.90
5174;DHT22;2606;50.934;6.934;2022-11-12T14:31:12;14.40;99.90
5174;DHT22;2606;50.934;6.934;2022-11-12T14:33:44;14.40;99.90
5174;DHT22;2606;50.934;6.934;2022-11-12T14:36:16;14.40;99.90
5174;DHT22;2606;50.934;6.934;2022-11-12T14:38:52;14.40;99.90
5174;DHT22;2606;50.934;6.934;2022-11-12T14:41:22;14.50;99.90
5174;DHT22;2606;50.934;6.934;2022-11-12T14:43:52;14.50;99.90
5174;DHT22;2606;50.934;6.934;2022-11-12T14:46:51;14.40;99.90
5174;DHT22;2606;50.934;6.934;2022-11-12T14:51:54;14.50;99.90
5174;DHT22;2606;50.934;6.934;2022-11-12T14:54:31;14.50;99.90
5174;DHT22;2606;50.934;6.934;2022-11-12T14:57:01;14.50;99.90
5174;DHT22;2606;50.934;6.934;2022-11-12T14:59:27;14.50;99.90
5174;DHT22;2606;50.934;6.934;2022-11-12T15:02:18;14.40;99.90
5174;DHT22;2606;50.934;6.934;2022-11-12T15:04:51;14.40;99.90
5174;DHT22;2606;50.934;6.934;2022-11-12T15:07:30;14.50;99.90
5174;DHT22;2606;50.934;6.934;2022-11-12T15:09:56;14.40;99.90
5174;DHT22;2606;50.934;6.934;2022-11-12T15:12:31;14.40;99.90
5174;DHT22;2606;50.934;6.934;2022-11-12T15:15:16;14.50;99.90
5174;DHT22;2606;50.934;6.934;2022-11-12T15:17:42;14.40;99.90
5174;DHT22;2606;50.934;6.934;2022-11-12T15:20:15;14.40;99.90
5174;DHT22;2606;50.934;6.934;2022-11-12T15:22:49;14.40;99.90
5174;DHT22;2606;50.934;6.934;2022-11-12T15:25:27;14.40;99.90
5174;DHT22;2606;50.934;6.934;2022-11-12T15:27:53;14.40;99.90
5174;DHT22;2606;50.934;6.934;2022-11-12T15:30:27;14.40;99.90
5174;DHT22;2606;50.934;6.934;2022-11-12T15:35:42;14.30;99.90
5174;DHT22;2606;50.934;6.934;2022-11-12T15:38:28;14.30;99.90
5174;DHT22;2606;50.934;6.934;2022-11-12T15:40:59;14.30;99.90
5174;DHT22;2606;50.934;6.934;2022-11-12T15:43:28;14.20;99.90
5174;DHT22;2606;50.934;6.934;2022-11-12T15:45:54;14.20;99.90
5174;DHT22;2606;50.934;6.934;2022-11-12T15:48:20;14.10;99.90
5174;DHT22;2606;50.934;6.934;2022-11-12T15:50:49;14.10;99.90
5174;DHT22;2606;50.934;6.934;2022-11-12T15:53:15;14.10;99.90
5174;DHT22;2606;50.934;6.934;2022-11-12T15:55:42;14.00;99.90
5174;DHT22;2606;50.934;6.934;2022-11-12T15:58:34;14.00;99.90
5174;DHT22;2606;50.934;6.934;2022-11-12T16:01:01;13.90;99.90
5174;DHT22;2606;50.934;6.934;2022-11-12T16:03:27;13.90;99.90
5174;DHT22;2606;50.934;6.934;2022-11-12T16:05:53;13.90;99.90
5174;DHT22;2606;50.934;6.934;2022-11-12T16:08:19;13.80;99.90
5174;DHT22;2606;50.934;6.934;2022-11-12T16:10:45;13.80;99.90
5174;DHT22;2606;50.934;6.934;2022-11-12T16:13:31;13.80;99.90
5174;DHT22;2606;50.934;6.934;2022-11-12T16:16:03;13.80;99.90
5174;DHT22;2606;50.934;6.934;2022-11-12T16:18:30;13.70;99.90
5174;DHT22;2606;50.934;6.934;2022-11-12T16:20:56;13.70;99.90
5174;DHT22;2606;50.934;6.934;2022-11-12T16:23:22;13.60;99.90
5174;DHT22;2606;50.934;6.934;2022-11-12T16:25:47;13.60;99.90
5174;DHT22;2606;50.934;6.934;2022-11-12T16:28:17;13.60;99.90
5174;DHT22;2606;50.934;6.934;2022-11-12T16:30:46;13.60;99.90
5174;DHT22;2606;50.934;6.934;2022-11-12T16:33:12;13.50;99.90
5174;DHT22;2606;50.934;6.934;2022-11-12T16:35:39;13.50;99.90
5174;DHT22;2606;50.934;6.934;2022-11-12T16:38:16;13.50;99.90
5174;DHT22;2606;50.934;6.934;2022-11-12T16:40:43;13.50;99.90
5174;DHT22;2606;50.934;6.934;2022-11-12T16:43:09;13.40;99.90
5174;DHT22;2606;50.934;6.934;2022-11-12T16:45:38;13.40;99.90
5174;DHT22;2606;50.934;6.934;2022-11-12T16:48:17;13.30;99.90
5174;DHT22;2606;50.934;6.934;2022-11-12T16:50:43;13.30;99.90
5174;DHT22;2606;50.934;6.934;2022-11-12T16:53:09;13.30;99.90
5174;DHT22;2606;50.934;6.934;2022-11-12T16:55:34;13.20;99.90
5174;DHT22;2606;50.934;6.934;2022-11-12T16:58:00;13.20;99.90
5174;DHT22;2606;50.934;6.934;2022-11-12T17:00:25;13.20;99.90
5174;DHT22;2606;50.934;6.934;2022-11-12T17:02:52;13.20;99.90
5174;DHT22;2606;50.934;6.934;2022-11-12T17:05:24;13.10;99.90
5174;DHT22;2606;50.934;6.934;2022-11-12T17:07:55;13.10;99.90
5174;DHT22;2606;50.934;6.934;2022-11-12T17:10:20;13.10;99.90
5174;DHT22;2606;50.934;6.934;2022-11-12T17:12:50;13.10;99.90
5174;DHT22;2606;50.934;6.934;2022-11-12T17:15:16;13.00;99.90
5174;DHT22;2606;50.934;6.934;2022-11-12T17:17:41;13.00;99.90
5174;DHT22;2606;50.934;6.934;2022-11-12T17:20:07;13.00;99.90
5174;DHT22;2606;50.934;6.934;2022-11-12T17:22:35;13.00;99.90
5174;DHT22;2606;50.934;6.934;2022-11-12T17:25:01;13.00;99.90
5174;DHT22;2606;50.934;6.934;2022-11-12T17:27:27;12.90;99.90
5174;DHT22;2606;50.934;6.934;2022-11-12T17:29:52;12.90;99.90
5174;DHT22;2606;50.934;6.934;2022-11-12T17:32:18;12.80;99.90
5174;DHT22;2606;50.934;6.934;2022-11-12T17:34:43;12.80;99.90
5174;DHT22;2606;50.934;6.934;2022-11-12T17:37:09;12.80;99.90
5174;DHT22;2606;50.934;6.934;2022-11-12T17:39:34;12.70;99.90
5174;DHT22;2606;50.934;6.934;2022-11-12T17:42:00;12.70;99.90
5174;DHT22;2606;50.934;6.934;2022-11-12T17:44:25;12.70;99.90
5174;DHT22;2606;50.934;6.934;2022-11-12T17:46:51;12.60;99.90
5174;DHT22;2606;50.934;6.934;2022-11-12T17:49:17;12.60;99.90
5174;DHT22;2606;50.934;6.934;2022-11-12T17:51:43;12.60;99.90
5174;DHT22;2606;50.934;6.934;2022-11-12T17:54:09;12.60;99.90
5174;DHT22;2606;50.934;6.934;2022-11-12T17:56:35;12.70;99.90
5174;DHT22;2606;50.934;6.934;2022-11-12T17:59:01;12.50;99.90
5174;DHT22;2606;50.934;6.934;2022-11-12T18:01:28;12.50;99.90
5174;DHT22;2606;50.934;6.934;2022-11-12T18:03:58;12.50;99.90
5174;DHT22;2606;50.934;6.934;2022-11-12T18:06:32;12.50;99.90
5174;DHT22;2606;50.934;6.934;2022-11-12T18:09:01;12.50;99.90
5174;DHT22;2606;50.934;6.934;2022-11-12T18:11:28;12.40;99.90
5174;DHT22;2606;50.934;6.934;2022-11-12T18:13:55;12.40;99.90
5174;DHT22;2606;50.934;6.934;2022-11-12T18:16:26;12.40;99.90
5174;DHT22;2606;50.934;6.934;2022-11-12T18:18:56;12.40;99.90
5174;DHT22;2606;50.934;6.934;2022-11-12T18:21:23;12.40;99.90
5174;DHT22;2606;50.934;6.934;2022-11-12T18:23:49;12.40;99.90
5174;DHT22;2606;50.934;6.934;2022-11-12T18:26:16;12.40;99.90
5174;DHT22;2606;50.934;6.934;2022-11-12T18:28:55;12.40;99.90
5174;DHT22;2606;50.934;6.934;2022-11-12T18:31:23;12.30;99.90
5174;DHT22;2606;50.934;6.934;2022-11-12T18:33:53;12.30;99.90
5174;DHT22;2606;50.934;6.934;2022-11-12T18:36:20;12.30;99.90
5174;DHT22;2606;50.934;6.934;2022-11-12T18:38:48;12.30;99.90
5174;DHT22;2606;50.934;6.934;2022-11-12T18:41:16;12.30;99.90
5174;DHT22;2606;50.934;6.934;2022-11-12T18:43:42;12.30;99.90
5174;DHT22;2606;50.934;6.934;2022-11-12T18:46:09;12.30;99.90
5174;DHT22;2606;50.934;6.934;2022-11-12T18:48:36;12.30;99.90
5174;DHT22;2606;50.934;6.934;2022-11-12T18:51:07;12.30;99.90